sensor_id;sensor_type;location;lat;lon;timestamp;pressure;altitude;pressure_sealevel;temperature;humidity
59831;BME280;45711;50.108;13.712;2022-12-15T00:02:28;96560.81;;;-8.71;89.42
59831;BME280;45711;50.108;13.712;2022-12-15T00:05:14;96555.38;;;-8.83;89.28
59831;BME280;45711;50.108;13.712;2022-12-15T00:08:05;96549.41;;;-8.83;89.24
59831;BME280;45711;50.108;13.712;2022-12-15T00:10:49;96550.78;;;-8.88;89.00
59831;BME280;45711;50.108;13.712;2022-12-15T00:13:32;96545.88;;;-8.97;89.05
59831;BME280;45711;50.108;13.712;2022-12-15T00:16:16;96543.34;;;-8.91;89.86
59831;BME280;45711;50.108;13.712;2022-12-15T00:19:00;96550.91;;;-8.96;89.18
59831;BME280;45711;50.108;13.712;2022-12-15T00:21:46;96544.63;;;-8.80;89.17
59831;BME280;45711;50.108;13.712;2022-12-15T00:24:30;96544.34;;;-8.92;89.80
59831;BME280;45711;50.108;13.712;2022-12-15T00:27:14;96545.88;;;-8.97;89.21
59831;BME280;45711;50.108;13.712;2022-12-15T00:29:58;96549.63;;;-9.06;89.59
59831;BME280;45711;50.108;13.712;2022-12-15T00:32:42;96541.41;;;-9.10;89.33
59831;BME280;45711;50.108;13.712;2022-12-15T00:35:26;96541.00;;;-9.14;89.67
59831;BME280;45711;50.108;13.712;2022-12-15T00:38:13;96542.97;;;-9.16;88.34
59831;BME280;45711;50.108;13.712;2022-12-15T00:40:57;96553.66;;;-9.25;88.76
59831;BME280;45711;50.108;13.712;2022-12-15T00:43:23;96559.16;;;-9.35;87.95
59831;BME280;45711;50.108;13.712;2022-12-15T00:45:49;96561.94;;;-9.37;88.68
59831;BME280;45711;50.108;13.712;2022-12-15T00:48:33;96578.09;;;-9.34;88.46
59831;BME280;45711;50.108;13.712;2022-12-15T00:50:58;96586.59;;;-9.41;88.11
59831;BME280;45711;50.108;13.712;2022-12-15T00:53:25;96592.06;;;-9.35;89.00
59831;BME280;45711;50.108;13.712;2022-12-15T00:56:09;96597.72;;;-9.47;88.05
59831;BME280;45711;50.108;13.712;2022-12-15T00:58:53;96592.41;;;-9.60;88.01
59831;BME280;45711;50.108;13.712;2022-12-15T01:01:38;96599.63;;;-9.55;88.64
59831;BME280;45711;50.108;13.712;2022-12-15T01:04:22;96592.16;;;-9.65;88.69
59831;BME280;45711;50.108;13.712;2022-12-15T01:07:07;96600.78;;;-9.58;87.66
59831;BME280;45711;50.108;13.712;2022-12-15T01:09:52;96598.44;;;-9.74;87.23
59831;BME280;45711;50.108;13.712;2022-12-15T01:12:36;96593.22;;;-9.96;88.21
59831;BME280;45711;50.108;13.712;2022-12-15T01:15:20;96590.34;;;-9.86;88.38
59831;BME280;45711;50.108;13.712;2022-12-15T01:18:04;96603.22;;;-9.71;85.78
59831;BME280;45711;50.108;13.712;2022-12-15T01:20:54;96617.38;;;-9.89;86.79
59831;BME280;45711;50.108;13.712;2022-12-15T01:23:19;96624.28;;;-9.96;88.42
59831;BME280;45711;50.108;13.712;2022-12-15T01:25:49;96621.28;;;-9.78;86.80
59831;BME280;45711;50.108;13.712;2022-12-15T01:28:14;96621.19;;;-9.84;86.43
59831;BME280;45711;50.108;13.712;2022-12-15T01:30:40;96630.78;;;-10.00;87.31
59831;BME280;45711;50.108;13.712;2022-12-15T01:33:06;96621.97;;;-10.20;86.61
59831;BME280;45711;50.108;13.712;2022-12-15T01:35:31;96615.91;;;-10.27;87.32
59831;BME280;45711;50.108;13.712;2022-12-15T01:37:57;96626.34;;;-10.21;87.88
59831;BME280;45711;50.108;13.712;2022-12-15T01:40:22;96625.63;;;-10.15;87.59
59831;BME280;45711;50.108;13.712;2022-12-15T01:43:13;96631.50;;;-10.21;87.40
59831;BME280;45711;50.108;13.712;2022-12-15T01:48:40;96634.16;;;-10.35;87.32
59831;BME280;45711;50.108;13.712;2022-12-15T01:51:14;96633.59;;;-10.46;86.74
59831;BME280;45711;50.108;13.712;2022-12-15T01:53:42;96628.41;;;-10.46;86.68
59831;BME280;45711;50.108;13.712;2022-12-15T01:56:12;96610.66;;;-10.64;86.67
59831;BME280;45711;50.108;13.712;2022-12-15T01:58:41;96619.97;;;-10.40;87.53
59831;BME280;45711;50.108;13.712;2022-12-15T02:01:08;96616.06;;;-9.99;86.54
59831;BME280;45711;50.108;13.712;2022-12-15T02:03:34;96624.31;;;-10.55;85.53
59831;BME280;45711;50.108;13.712;2022-12-15T02:06:00;96636.16;;;-10.60;86.71
59831;BME280;45711;50.108;13.712;2022-12-15T02:08:28;96635.94;;;-10.89;85.24
59831;BME280;45711;50.108;13.712;2022-12-15T02:11:07;96658.03;;;-10.86;86.50
59831;BME280;45711;50.108;13.712;2022-12-15T02:13:44;96647.00;;;-10.80;86.92
59831;BME280;45711;50.108;13.712;2022-12-15T02:16:19;96655.91;;;-10.45;87.78
59831;BME280;45711;50.108;13.712;2022-12-15T02:18:54;96672.75;;;-10.34;85.23
59831;BME280;45711;50.108;13.712;2022-12-15T02:21:27;96671.69;;;-10.77;85.42
59831;BME280;45711;50.108;13.712;2022-12-15T02:27:21;96655.91;;;-10.45;87.13
59831;BME280;45711;50.108;13.712;2022-12-15T02:30:19;96660.34;;;-10.39;86.81
59831;BME280;45711;50.108;13.712;2022-12-15T02:33:00;96666.31;;;-10.38;86.96
59831;BME280;45711;50.108;13.712;2022-12-15T02:35:32;96670.13;;;-10.19;87.51
59831;BME280;45711;50.108;13.712;2022-12-15T02:38:01;96681.66;;;-10.22;86.71
59831;BME280;45711;50.108;13.712;2022-12-15T02:40:27;96682.44;;;-10.06;87.66
59831;BME280;45711;50.108;13.712;2022-12-15T02:42:54;96690.59;;;-10.09;87.69
59831;BME280;45711;50.108;13.712;2022-12-15T02:45:30;96698.97;;;-10.07;87.51
59831;BME280;45711;50.108;13.712;2022-12-15T02:48:05;96697.34;;;-9.94;87.62
59831;BME280;45711;50.108;13.712;2022-12-15T02:50:44;96698.06;;;-10.00;86.18
59831;BME280;45711;50.108;13.712;2022-12-15T02:53:30;96697.53;;;-9.80;85.11
59831;BME280;45711;50.108;13.712;2022-12-15T02:56:05;96700.38;;;-9.75;84.65
59831;BME280;45711;50.108;13.712;2022-12-15T02:58:38;96720.56;;;-10.00;85.14
59831;BME280;45711;50.108;13.712;2022-12-15T03:01:15;96733.66;;;-10.17;85.19
59831;BME280;45711;50.108;13.712;2022-12-15T03:03:43;96716.53;;;-10.18;85.35
59831;BME280;45711;50.108;13.712;2022-12-15T03:06:10;96706.53;;;-10.21;85.15
59831;BME280;45711;50.108;13.712;2022-12-15T03:08:36;96717.38;;;-9.88;84.58
59831;BME280;45711;50.108;13.712;2022-12-15T03:11:02;96712.72;;;-9.92;84.79
59831;BME280;45711;50.108;13.712;2022-12-15T03:13:28;96716.19;;;-9.70;85.14
59831;BME280;45711;50.108;13.712;2022-12-15T03:15:53;96720.47;;;-10.07;85.73
59831;BME280;45711;50.108;13.712;2022-12-15T03:18:20;96734.66;;;-10.18;85.88
59831;BME280;45711;50.108;13.712;2022-12-15T03:20:46;96745.63;;;-10.30;86.28
59831;BME280;45711;50.108;13.712;2022-12-15T03:23:11;96744.72;;;-10.38;86.89
59831;BME280;45711;50.108;13.712;2022-12-15T03:25:37;96752.41;;;-10.29;86.53
59831;BME280;45711;50.108;13.712;2022-12-15T03:28:02;96757.06;;;-10.25;86.64
59831;BME280;45711;50.108;13.712;2022-12-15T03:30:28;96758.91;;;-10.33;86.41
59831;BME280;45711;50.108;13.712;2022-12-15T03:32:54;96745.88;;;-10.10;87.97
59831;BME280;45711;50.108;13.712;2022-12-15T03:35:20;96760.66;;;-9.96;87.30
59831;BME280;45711;50.108;13.712;2022-12-15T03:37:46;96757.94;;;-9.58;86.73
59831;BME280;45711;50.108;13.712;2022-12-15T03:40:12;96754.03;;;-9.40;86.27
59831;BME280;45711;50.108;13.712;2022-12-15T03:42:38;96750.25;;;-9.37;86.45
59831;BME280;45711;50.108;13.712;2022-12-15T03:45:13;96771.47;;;-9.12;85.58
59831;BME280;45711;50.108;13.712;2022-12-15T03:47:39;96768.53;;;-9.24;85.87
59831;BME280;45711;50.108;13.712;2022-12-15T03:50:06;96772.22;;;-9.18;84.94
59831;BME280;45711;50.108;13.712;2022-12-15T03:52:33;96776.09;;;-9.44;85.46
59831;BME280;45711;50.108;13.712;2022-12-15T03:54:59;96789.84;;;-9.43;85.84
59831;BME280;45711;50.108;13.712;2022-12-15T03:57:24;96794.28;;;-9.37;87.87
59831;BME280;45711;50.108;13.712;2022-12-15T03:59:50;96802.59;;;-9.42;86.70
59831;BME280;45711;50.108;13.712;2022-12-15T04:02:15;96802.59;;;-9.42;87.94
59831;BME280;45711;50.108;13.712;2022-12-15T04:04:41;96792.34;;;-9.35;87.87
59831;BME280;45711;50.108;13.712;2022-12-15T04:07:06;96788.00;;;-9.13;88.44
59831;BME280;45711;50.108;13.712;2022-12-15T04:09:35;96803.97;;;-8.95;88.64
59831;BME280;45711;50.108;13.712;2022-12-15T04:12:00;96804.72;;;-9.01;88.21
59831;BME280;45711;50.108;13.712;2022-12-15T04:14:27;96803.78;;;-8.93;88.70
59831;BME280;45711;50.108;13.712;2022-12-15T04:16:53;96814.03;;;-8.85;88.45
59831;BME280;45711;50.108;13.712;2022-12-15T04:19:18;96804.59;;;-8.71;88.63
59831;BME280;45711;50.108;13.712;2022-12-15T04:22:02;96800.16;;;-8.77;88.66
59831;BME280;45711;50.108;13.712;2022-12-15T04:24:28;96791.53;;;-8.63;88.49
59831;BME280;45711;50.108;13.712;2022-12-15T04:27:13;96800.06;;;-8.48;88.86
59831;BME280;45711;50.108;13.712;2022-12-15T04:29:57;96804.47;;;-8.48;87.84
59831;BME280;45711;50.108;13.712;2022-12-15T04:32:43;96802.28;;;-8.45;87.15
59831;BME280;45711;50.108;13.712;2022-12-15T04:35:26;96799.94;;;-8.61;86.76
59831;BME280;45711;50.108;13.712;2022-12-15T04:38:11;96799.13;;;-8.83;87.77
59831;BME280;45711;50.108;13.712;2022-12-15T04:40:55;96808.44;;;-8.67;88.36
59831;BME280;45711;50.108;13.712;2022-12-15T04:43:40;96809.06;;;-8.87;89.36
59831;BME280;45711;50.108;13.712;2022-12-15T04:46:24;96811.47;;;-8.64;89.36
59831;BME280;45711;50.108;13.712;2022-12-15T04:49:08;96807.22;;;-8.50;87.76
59831;BME280;45711;50.108;13.712;2022-12-15T04:51:52;96816.25;;;-8.46;88.10
59831;BME280;45711;50.108;13.712;2022-12-15T04:54:36;96815.66;;;-8.63;88.25
59831;BME280;45711;50.108;13.712;2022-12-15T04:57:20;96794.75;;;-8.61;89.01
59831;BME280;45711;50.108;13.712;2022-12-15T05:00:07;96816.00;;;-8.51;89.38
59831;BME280;45711;50.108;13.712;2022-12-15T05:02:51;96826.25;;;-8.43;89.23
59831;BME280;45711;50.108;13.712;2022-12-15T05:05:35;96822.31;;;-8.39;89.67
59831;BME280;45711;50.108;13.712;2022-12-15T05:08:19;96825.00;;;-8.25;89.76
59831;BME280;45711;50.108;13.712;2022-12-15T05:11:03;96827.59;;;-8.25;89.32
59831;BME280;45711;50.108;13.712;2022-12-15T05:13:47;96833.22;;;-8.22;90.17
59831;BME280;45711;50.108;13.712;2022-12-15T05:16:32;96839.75;;;-8.26;89.27
59831;BME280;45711;50.108;13.712;2022-12-15T05:19:19;96851.88;;;-8.12;89.61
59831;BME280;45711;50.108;13.712;2022-12-15T05:22:04;96856.81;;;-8.17;89.62
59831;BME280;45711;50.108;13.712;2022-12-15T05:24:48;96862.69;;;-8.08;90.09
59831;BME280;45711;50.108;13.712;2022-12-15T05:27:32;96873.53;;;-7.98;89.95
59831;BME280;45711;50.108;13.712;2022-12-15T05:30:17;96866.38;;;-7.96;90.00
59831;BME280;45711;50.108;13.712;2022-12-15T05:33:03;96863.16;;;-7.98;90.83
59831;BME280;45711;50.108;13.712;2022-12-15T05:35:29;96870.47;;;-7.87;90.20
59831;BME280;45711;50.108;13.712;2022-12-15T05:37:54;96886.03;;;-7.87;90.92
59831;BME280;45711;50.108;13.712;2022-12-15T05:40:20;96872.22;;;-7.66;90.25
59831;BME280;45711;50.108;13.712;2022-12-15T05:42:46;96873.53;;;-7.76;89.16
59831;BME280;45711;50.108;13.712;2022-12-15T05:45:11;96867.22;;;-7.89;90.26
59831;BME280;45711;50.108;13.712;2022-12-15T05:47:37;96869.09;;;-7.82;90.36
59831;BME280;45711;50.108;13.712;2022-12-15T05:50:05;96863.91;;;-7.82;90.48
59831;BME280;45711;50.108;13.712;2022-12-15T05:52:30;96879.91;;;-7.79;89.97
59831;BME280;45711;50.108;13.712;2022-12-15T05:54:56;96882.53;;;-8.00;90.53
59831;BME280;45711;50.108;13.712;2022-12-15T05:57:21;96893.75;;;-7.93;90.84
59831;BME280;45711;50.108;13.712;2022-12-15T05:59:47;96893.16;;;-7.95;91.05
59831;BME280;45711;50.108;13.712;2022-12-15T06:02:13;96894.97;;;-7.68;91.31
59831;BME280;45711;50.108;13.712;2022-12-15T06:04:38;96885.22;;;-7.66;91.29
59831;BME280;45711;50.108;13.712;2022-12-15T06:07:05;96898.22;;;-7.66;91.22
59831;BME280;45711;50.108;13.712;2022-12-15T06:09:31;96908.16;;;-7.41;91.45
59831;BME280;45711;50.108;13.712;2022-12-15T06:11:57;96909.59;;;-7.39;91.31
59831;BME280;45711;50.108;13.712;2022-12-15T06:14:22;96918.31;;;-7.46;91.20
59831;BME280;45711;50.108;13.712;2022-12-15T06:16:48;96922.34;;;-7.44;91.02
59831;BME280;45711;50.108;13.712;2022-12-15T06:19:14;96924.56;;;-7.41;91.84
59831;BME280;45711;50.108;13.712;2022-12-15T06:21:39;96926.75;;;-7.44;91.72
59831;BME280;45711;50.108;13.712;2022-12-15T06:24:07;96914.97;;;-7.40;91.62
59831;BME280;45711;50.108;13.712;2022-12-15T06:26:34;96910.84;;;-7.28;91.88
59831;BME280;45711;50.108;13.712;2022-12-15T06:29:01;96915.91;;;-7.20;90.73
59831;BME280;45711;50.108;13.712;2022-12-15T06:31:27;96921.31;;;-7.21;91.02
59831;BME280;45711;50.108;13.712;2022-12-15T06:33:53;96930.38;;;-7.11;90.56
59831;BME280;45711;50.108;13.712;2022-12-15T06:36:20;96938.06;;;-7.24;91.21
59831;BME280;45711;50.108;13.712;2022-12-15T06:38:48;96943.56;;;-7.40;89.92
59831;BME280;45711;50.108;13.712;2022-12-15T06:41:17;96947.03;;;-7.54;90.09
59831;BME280;45711;50.108;13.712;2022-12-15T06:43:48;96950.69;;;-7.49;89.66
59831;BME280;45711;50.108;13.712;2022-12-15T06:46:13;96960.53;;;-7.44;89.77
59831;BME280;45711;50.108;13.712;2022-12-15T06:48:39;96967.09;;;-7.48;89.30
59831;BME280;45711;50.108;13.712;2022-12-15T06:51:06;96958.63;;;-7.36;89.85
59831;BME280;45711;50.108;13.712;2022-12-15T06:53:35;96960.66;;;-7.31;88.90
59831;BME280;45711;50.108;13.712;2022-12-15T06:56:02;96967.91;;;-7.48;90.32
59831;BME280;45711;50.108;13.712;2022-12-15T06:58:29;96967.03;;;-7.55;90.62
59831;BME280;45711;50.108;13.712;2022-12-15T07:00:55;96971.56;;;-7.64;90.51
59831;BME280;45711;50.108;13.712;2022-12-15T07:03:21;96971.56;;;-7.64;90.77
59831;BME280;45711;50.108;13.712;2022-12-15T07:05:47;96970.63;;;-7.56;91.27
59831;BME280;45711;50.108;13.712;2022-12-15T07:08:14;96977.19;;;-7.60;91.44
59831;BME280;45711;50.108;13.712;2022-12-15T07:10:41;96984.09;;;-7.67;91.21
59831;BME280;45711;50.108;13.712;2022-12-15T07:13:08;96985.59;;;-7.58;91.25
59831;BME280;45711;50.108;13.712;2022-12-15T07:15:36;96981.06;;;-7.49;91.23
59831;BME280;45711;50.108;13.712;2022-12-15T07:18:01;96985.28;;;-7.27;91.28
59831;BME280;45711;50.108;13.712;2022-12-15T07:20:27;96987.13;;;-7.42;90.20
59831;BME280;45711;50.108;13.712;2022-12-15T07:22:53;96989.16;;;-7.38;90.97
59831;BME280;45711;50.108;13.712;2022-12-15T07:25:18;96983.59;;;-7.35;91.04
59831;BME280;45711;50.108;13.712;2022-12-15T07:27:45;96988.78;;;-7.13;91.65
59831;BME280;45711;50.108;13.712;2022-12-15T07:30:11;96983.09;;;-6.95;90.54
59831;BME280;45711;50.108;13.712;2022-12-15T07:32:39;96984.25;;;-6.98;90.47
59831;BME280;45711;50.108;13.712;2022-12-15T07:35:05;96989.53;;;-6.91;89.63
59831;BME280;45711;50.108;13.712;2022-12-15T07:37:33;96992.78;;;-7.11;90.18
59831;BME280;45711;50.108;13.712;2022-12-15T07:39:59;96992.31;;;-7.21;90.02
59831;BME280;45711;50.108;13.712;2022-12-15T07:42:24;97003.28;;;-7.25;89.82
59831;BME280;45711;50.108;13.712;2022-12-15T07:44:52;96992.88;;;-7.25;89.71
59831;BME280;45711;50.108;13.712;2022-12-15T07:47:18;96995.91;;;-7.22;89.26
59831;BME280;45711;50.108;13.712;2022-12-15T07:49:45;97000.78;;;-7.12;90.22
59831;BME280;45711;50.108;13.712;2022-12-15T07:52:11;97001.81;;;-7.06;89.75
59831;BME280;45711;50.108;13.712;2022-12-15T07:54:38;97005.44;;;-7.01;89.83
59831;BME280;45711;50.108;13.712;2022-12-15T07:57:04;97009.38;;;-7.12;89.69
59831;BME280;45711;50.108;13.712;2022-12-15T07:59:32;97014.84;;;-7.28;89.87
59831;BME280;45711;50.108;13.712;2022-12-15T08:01:58;97019.66;;;-7.25;90.26
59831;BME280;45711;50.108;13.712;2022-12-15T08:04:24;97023.63;;;-7.29;89.96
59831;BME280;45711;50.108;13.712;2022-12-15T08:06:52;97029.56;;;-7.14;89.94
59831;BME280;45711;50.108;13.712;2022-12-15T08:09:17;97037.84;;;-6.75;88.55
59831;BME280;45711;50.108;13.712;2022-12-15T08:11:43;97037.25;;;-6.43;86.44
59831;BME280;45711;50.108;13.712;2022-12-15T08:14:09;97039.72;;;-6.28;85.36
59831;BME280;45711;50.108;13.712;2022-12-15T08:16:34;97043.66;;;-6.73;86.17
59831;BME280;45711;50.108;13.712;2022-12-15T08:19:00;97046.31;;;-6.95;87.11
59831;BME280;45711;50.108;13.712;2022-12-15T08:21:26;97054.69;;;-6.99;88.44
59831;BME280;45711;50.108;13.712;2022-12-15T08:23:53;97062.78;;;-6.88;88.34
59831;BME280;45711;50.108;13.712;2022-12-15T08:26:19;97059.81;;;-7.06;88.74
59831;BME280;45711;50.108;13.712;2022-12-15T08:28:45;97058.09;;;-6.99;89.57
59831;BME280;45711;50.108;13.712;2022-12-15T08:31:12;97056.91;;;-6.96;89.40
59831;BME280;45711;50.108;13.712;2022-12-15T08:33:38;97052.75;;;-6.91;89.04
59831;BME280;45711;50.108;13.712;2022-12-15T08:36:07;97043.94;;;-6.90;89.72
59831;BME280;45711;50.108;13.712;2022-12-15T08:38:34;97036.09;;;-6.68;89.42
59831;BME280;45711;50.108;13.712;2022-12-15T08:41:07;97044.75;;;-6.61;88.47
59831;BME280;45711;50.108;13.712;2022-12-15T08:43:35;97055.47;;;-6.43;88.73
59831;BME280;45711;50.108;13.712;2022-12-15T08:46:00;97064.34;;;-6.30;88.11
59831;BME280;45711;50.108;13.712;2022-12-15T08:48:26;97068.94;;;-6.33;88.49
59831;BME280;45711;50.108;13.712;2022-12-15T08:50:54;97063.34;;;-6.29;88.91
59831;BME280;45711;50.108;13.712;2022-12-15T08:53:20;97060.38;;;-6.26;88.41
59831;BME280;45711;50.108;13.712;2022-12-15T08:55:46;97064.41;;;-6.17;87.95
59831;BME280;45711;50.108;13.712;2022-12-15T08:58:13;97068.84;;;-6.11;89.29
59831;BME280;45711;50.108;13.712;2022-12-15T09:00:38;97074.06;;;-6.11;88.50
59831;BME280;45711;50.108;13.712;2022-12-15T09:03:04;97079.31;;;-6.04;89.46
59831;BME280;45711;50.108;13.712;2022-12-15T09:05:30;97076.16;;;-5.80;88.47
59831;BME280;45711;50.108;13.712;2022-12-15T09:07:58;97079.25;;;-5.57;87.90
59831;BME280;45711;50.108;13.712;2022-12-15T09:10:24;97082.91;;;-5.38;87.83
59831;BME280;45711;50.108;13.712;2022-12-15T09:12:49;97082.53;;;-4.88;87.40
59831;BME280;45711;50.108;13.712;2022-12-15T09:15:16;97080.34;;;-5.11;86.09
59831;BME280;45711;50.108;13.712;2022-12-15T09:17:42;97084.56;;;-4.77;86.07
59831;BME280;45711;50.108;13.712;2022-12-15T09:20:08;97065.31;;;-4.83;86.20
59831;BME280;45711;50.108;13.712;2022-12-15T09:22:34;97090.19;;;-4.87;85.33
59831;BME280;45711;50.108;13.712;2022-12-15T09:25:00;97092.78;;;-4.93;85.80
59831;BME280;45711;50.108;13.712;2022-12-15T09:27:26;97092.19;;;-4.82;84.67
59831;BME280;45711;50.108;13.712;2022-12-15T09:29:53;97074.50;;;-4.67;85.59
59831;BME280;45711;50.108;13.712;2022-12-15T09:32:20;97078.53;;;-4.51;84.69
59831;BME280;45711;50.108;13.712;2022-12-15T09:34:45;97082.78;;;-4.70;84.20
59831;BME280;45711;50.108;13.712;2022-12-15T09:37:11;97079.94;;;-4.75;84.42
59831;BME280;45711;50.108;13.712;2022-12-15T09:39:37;97090.78;;;-4.65;84.25
59831;BME280;45711;50.108;13.712;2022-12-15T09:42:03;97087.53;;;-4.40;83.61
59831;BME280;45711;50.108;13.712;2022-12-15T09:44:31;97098.19;;;-4.28;82.79
59831;BME280;45711;50.108;13.712;2022-12-15T09:47:07;97097.78;;;-4.25;82.80
59831;BME280;45711;50.108;13.712;2022-12-15T09:49:46;97106.03;;;-4.35;83.03
59831;BME280;45711;50.108;13.712;2022-12-15T09:52:15;97112.44;;;-4.31;83.80
59831;BME280;45711;50.108;13.712;2022-12-15T09:54:42;97107.84;;;-4.29;83.77
59831;BME280;45711;50.108;13.712;2022-12-15T09:57:15;97101.41;;;-4.40;83.26
59831;BME280;45711;50.108;13.712;2022-12-15T10:00:10;97110.03;;;-4.33;82.89
59831;BME280;45711;50.108;13.712;2022-12-15T10:03:00;97126.09;;;-4.09;82.56
59831;BME280;45711;50.108;13.712;2022-12-15T10:05:41;97136.91;;;-3.99;84.47
59831;BME280;45711;50.108;13.712;2022-12-15T10:08:09;97134.34;;;-4.32;82.64
59831;BME280;45711;50.108;13.712;2022-12-15T10:10:39;97135.97;;;-4.38;82.66
59831;BME280;45711;50.108;13.712;2022-12-15T10:13:10;97137.97;;;-4.33;82.87
59831;BME280;45711;50.108;13.712;2022-12-15T10:15:45;97134.97;;;-4.30;81.98
59831;BME280;45711;50.108;13.712;2022-12-15T10:18:18;97132.31;;;-4.23;82.42
59831;BME280;45711;50.108;13.712;2022-12-15T10:20:46;97134.16;;;-4.17;82.06
59831;BME280;45711;50.108;13.712;2022-12-15T10:23:13;97138.53;;;-4.11;82.19
59831;BME280;45711;50.108;13.712;2022-12-15T10:25:46;97143.16;;;-4.07;82.28
59831;BME280;45711;50.108;13.712;2022-12-15T10:28:27;97142.94;;;-4.05;81.47
59831;BME280;45711;50.108;13.712;2022-12-15T10:31:00;97142.53;;;-4.02;81.73
59831;BME280;45711;50.108;13.712;2022-12-15T10:33:35;97154.59;;;-3.94;82.12
59831;BME280;45711;50.108;13.712;2022-12-15T10:36:06;97151.94;;;-3.88;81.72
59831;BME280;45711;50.108;13.712;2022-12-15T10:38:35;97138.91;;;-3.94;81.08
59831;BME280;45711;50.108;13.712;2022-12-15T10:41:03;97130.88;;;-3.99;81.36
59831;BME280;45711;50.108;13.712;2022-12-15T10:43:32;97128.69;;;-3.96;80.81
59831;BME280;45711;50.108;13.712;2022-12-15T10:46:04;97126.81;;;-3.89;82.41
59831;BME280;45711;50.108;13.712;2022-12-15T10:48:31;97121.78;;;-3.77;80.86
59831;BME280;45711;50.108;13.712;2022-12-15T10:51:16;97119.56;;;-3.73;80.10
59831;BME280;45711;50.108;13.712;2022-12-15T10:53:44;97120.94;;;-3.71;80.15
59831;BME280;45711;50.108;13.712;2022-12-15T10:56:18;97111.91;;;-3.75;79.96
59831;BME280;45711;50.108;13.712;2022-12-15T10:58:46;97108.47;;;-3.69;80.40
59831;BME280;45711;50.108;13.712;2022-12-15T11:01:17;97102.44;;;-3.69;81.93
59831;BME280;45711;50.108;13.712;2022-12-15T11:03:43;97106.44;;;-3.67;80.53
59831;BME280;45711;50.108;13.712;2022-12-15T11:06:16;97104.03;;;-3.68;79.92
59831;BME280;45711;50.108;13.712;2022-12-15T11:08:43;97081.72;;;-3.71;80.50
59831;BME280;45711;50.108;13.712;2022-12-15T11:11:25;97080.69;;;-3.63;80.56
59831;BME280;45711;50.108;13.712;2022-12-15T11:14:16;97075.22;;;-3.55;80.14
59831;BME280;45711;50.108;13.712;2022-12-15T11:16:46;97077.59;;;-3.47;80.18
59831;BME280;45711;50.108;13.712;2022-12-15T11:19:17;97064.03;;;-3.31;80.68
59831;BME280;45711;50.108;13.712;2022-12-15T11:21:52;97068.97;;;-2.91;82.13
59831;BME280;45711;50.108;13.712;2022-12-15T11:24:28;97074.50;;;-3.37;79.05
59831;BME280;45711;50.108;13.712;2022-12-15T11:27:01;97068.31;;;-3.11;79.66
59831;BME280;45711;50.108;13.712;2022-12-15T11:29:37;97068.63;;;-3.26;78.87
59831;BME280;45711;50.108;13.712;2022-12-15T11:32:08;97077.03;;;-3.17;79.28
59831;BME280;45711;50.108;13.712;2022-12-15T11:34:37;97072.13;;;-3.07;80.77
59831;BME280;45711;50.108;13.712;2022-12-15T11:37:35;97076.94;;;-2.79;83.58
59831;BME280;45711;50.108;13.712;2022-12-15T11:42:57;97074.94;;;-3.09;81.29
59831;BME280;45711;50.108;13.712;2022-12-15T11:45:31;97064.56;;;-2.97;83.71
59831;BME280;45711;50.108;13.712;2022-12-15T11:48:01;97074.63;;;-2.94;82.59
59831;BME280;45711;50.108;13.712;2022-12-15T11:50:32;97059.88;;;-3.13;79.90
59831;BME280;45711;50.108;13.712;2022-12-15T11:53:14;97043.66;;;-3.29;79.34
59831;BME280;45711;50.108;13.712;2022-12-15T11:55:49;97043.19;;;-3.19;81.74
59831;BME280;45711;50.108;13.712;2022-12-15T12:01:37;97061.03;;;-3.09;79.96
59831;BME280;45711;50.108;13.712;2022-12-15T12:04:17;97062.56;;;-2.95;81.12
59831;BME280;45711;50.108;13.712;2022-12-15T12:06:49;97070.06;;;-2.73;80.80
59831;BME280;45711;50.108;13.712;2022-12-15T12:09:26;97072.78;;;-2.87;81.47
59831;BME280;45711;50.108;13.712;2022-12-15T12:11:55;97074.84;;;-2.95;80.17
59831;BME280;45711;50.108;13.712;2022-12-15T12:14:31;97070.63;;;-2.71;81.96
59831;BME280;45711;50.108;13.712;2022-12-15T12:17:06;97069.38;;;-2.44;81.11
59831;BME280;45711;50.108;13.712;2022-12-15T12:19:37;97071.34;;;-2.83;79.75
59831;BME280;45711;50.108;13.712;2022-12-15T12:22:09;97060.63;;;-2.56;82.33
59831;BME280;45711;50.108;13.712;2022-12-15T12:24:42;97048.41;;;-2.44;81.32
59831;BME280;45711;50.108;13.712;2022-12-15T12:27:12;97055.13;;;-2.48;78.65
59831;BME280;45711;50.108;13.712;2022-12-15T12:29:44;97053.56;;;-2.56;78.94
59831;BME280;45711;50.108;13.712;2022-12-15T12:32:16;97045.91;;;-2.57;78.77
59831;BME280;45711;50.108;13.712;2022-12-15T12:34:53;97050.97;;;-2.56;78.17
59831;BME280;45711;50.108;13.712;2022-12-15T12:37:24;97049.63;;;-2.21;81.69
59831;BME280;45711;50.108;13.712;2022-12-15T12:39:57;97056.22;;;-2.37;79.49
59831;BME280;45711;50.108;13.712;2022-12-15T12:42:30;97064.09;;;-2.19;79.64
59831;BME280;45711;50.108;13.712;2022-12-15T12:45:00;97066.28;;;-1.97;80.95
59831;BME280;45711;50.108;13.712;2022-12-15T12:47:29;97066.06;;;-2.14;79.62
59831;BME280;45711;50.108;13.712;2022-12-15T12:49:59;97053.19;;;-2.34;78.21
59831;BME280;45711;50.108;13.712;2022-12-15T12:52:29;97054.16;;;-2.35;78.54
59831;BME280;45711;50.108;13.712;2022-12-15T12:54:59;97049.88;;;-1.93;80.96
59831;BME280;45711;50.108;13.712;2022-12-15T12:57:35;97057.09;;;-2.07;80.70
59831;BME280;45711;50.108;13.712;2022-12-15T13:00:14;97063.47;;;-1.96;81.13
59831;BME280;45711;50.108;13.712;2022-12-15T13:02:53;97075.09;;;-2.10;79.71
59831;BME280;45711;50.108;13.712;2022-12-15T13:05:37;97079.91;;;-1.89;81.38
59831;BME280;45711;50.108;13.712;2022-12-15T13:14:15;97071.91;;;-1.94;80.49
59831;BME280;45711;50.108;13.712;2022-12-15T13:16:43;97069.50;;;-1.95;79.22
59831;BME280;45711;50.108;13.712;2022-12-15T13:19:10;97074.50;;;-1.75;81.09
59831;BME280;45711;50.108;13.712;2022-12-15T13:21:53;97073.72;;;-2.13;78.59
59831;BME280;45711;50.108;13.712;2022-12-15T13:24:26;97068.19;;;-1.86;81.92
59831;BME280;45711;50.108;13.712;2022-12-15T13:27:11;97072.31;;;-2.34;78.26
59831;BME280;45711;50.108;13.712;2022-12-15T13:29:58;97068.91;;;-2.59;80.91
59831;BME280;45711;50.108;13.712;2022-12-15T13:32:32;97070.78;;;-2.41;81.90